EZY234 EHRD-EGKK
Flight info
| Callsign | EZY234 |
|---|---|
| Flight time | N/A |
| Altitude | 24000 |
| Route | ABNED Z344 AMRIV Q63 ARREK Y4 TEBRA |
| Aircraft | A320/M-SDE3FGHIRWY/LB1 |
Departure
| Time | 2026-05-06 12:41 |
|---|---|
| Airport | Rotterdam The Hague Airport (EHRD) |
Arrival
| Time | N/A |
|---|---|
| Airport | London Gatwick Airport (EGKK) |
| Time | Latitude | Longitude | Altitude | Speed | Heading |
|---|---|---|---|---|---|
| 2026-05-06 12:11 | 51.95168 | 4.43347 | 1 ft | 0 kts | 327° |
| 2026-05-06 12:38 | 51.95177 | 4.43338 | 1 ft | 6 kts | 327° |
| 2026-05-06 12:38 | 51.95191 | 4.43280 | 1 ft | 5 kts | 258° |
| 2026-05-06 12:38 | 51.95162 | 4.43197 | 1 ft | 13 kts | 239° |
| 2026-05-06 12:39 | 51.95120 | 4.43058 | 1 ft | 8 kts | 244° |
| 2026-05-06 12:39 | 51.95115 | 4.43038 | 1 ft | 0 kts | 248° |
| 2026-05-06 12:39 | 51.95114 | 4.43038 | 1 ft | 1 kts | 248° |
| 2026-05-06 12:40 | 51.95118 | 4.42958 | 1 ft | 10 kts | 295° |
| 2026-05-06 12:40 | 51.95177 | 4.42879 | 2 ft | 12 kts | 326° |
| 2026-05-06 12:40 | 51.95236 | 4.42892 | 3 ft | 10 kts | 58° |
| 2026-05-06 12:40 | 51.95242 | 4.42907 | 2 ft | 0 kts | 58° |
| 2026-05-06 12:41 | 51.95386 | 4.43269 | 0 ft | 82 kts | 57° |
| 2026-05-06 12:41 | 51.95824 | 4.44350 | 14 ft | 146 kts | 53° |
| 2026-05-06 12:41 | 51.96376 | 4.45750 | 823 ft | 146 kts | 56° |
| 2026-05-06 12:41 | 51.96922 | 4.47224 | 1502 ft | 162 kts | 56° |
| 2026-05-06 12:42 | 51.97545 | 4.48904 | 2061 ft | 186 kts | 56° |
| 2026-05-06 12:42 | 51.98332 | 4.50734 | 2599 ft | 210 kts | 43° |
| 2026-05-06 12:42 | 51.99592 | 4.51945 | 2726 ft | 214 kts | 16° |
| 2026-05-06 12:42 | 52.01068 | 4.51964 | 2969 ft | 224 kts | 346° |
| 2026-05-06 12:43 | 52.02445 | 4.50732 | 4067 ft | 232 kts | 322° |
| 2026-05-06 12:43 | 52.03344 | 4.48521 | 4623 ft | 240 kts | 290° |
| 2026-05-06 12:43 | 52.03364 | 4.45815 | 4820 ft | 244 kts | 257° |
| 2026-05-06 12:43 | 52.02479 | 4.43467 | 4886 ft | 246 kts | 222° |
| 2026-05-06 12:44 | 52.01580 | 4.42328 | 4888 ft | 249 kts | 216° |
| 2026-05-06 12:44 | 52.00182 | 4.40666 | 4893 ft | 248 kts | 216° |
| 2026-05-06 12:44 | 51.98789 | 4.39017 | 4883 ft | 247 kts | 217° |
| 2026-05-06 12:44 | 51.97459 | 4.37279 | 4892 ft | 248 kts | 227° |
| 2026-05-06 12:45 | 51.96498 | 4.34974 | 4905 ft | 254 kts | 249° |
| 2026-05-06 12:45 | 51.96047 | 4.32055 | 5115 ft | 278 kts | 266° |
| 2026-05-06 12:45 | 51.95550 | 4.25842 | 7563 ft | 277 kts | 263° |
| 2026-05-06 12:46 | 51.95278 | 4.22772 | 8669 ft | 280 kts | 263° |
| 2026-05-06 12:46 | 51.94998 | 4.19619 | 9776 ft | 284 kts | 263° |
| 2026-05-06 12:46 | 51.94712 | 4.16361 | 10476 ft | 302 kts | 263° |
| 2026-05-06 12:46 | 51.94411 | 4.12848 | 10915 ft | 327 kts | 263° |
| 2026-05-06 12:47 | 51.94091 | 4.09094 | 11573 ft | 340 kts | 263° |
| 2026-05-06 12:47 | 51.93751 | 4.05300 | 12424 ft | 346 kts | 262° |
| 2026-05-06 12:47 | 51.93378 | 4.01403 | 13320 ft | 352 kts | 261° |
| 2026-05-06 12:47 | 51.92986 | 3.97447 | 14197 ft | 355 kts | 261° |
| 2026-05-06 12:48 | 51.92587 | 3.93464 | 15009 ft | 360 kts | 262° |
| 2026-05-06 12:48 | 51.92189 | 3.89438 | 15828 ft | 363 kts | 262° |
| 2026-05-06 12:48 | 51.91790 | 3.85363 | 16648 ft | 367 kts | 262° |
| 2026-05-06 12:48 | 51.91393 | 3.81298 | 17396 ft | 372 kts | 262° |
| 2026-05-06 12:49 | 51.90984 | 3.77127 | 18145 ft | 377 kts | 262° |
| 2026-05-06 12:49 | 51.90570 | 3.72900 | 18805 ft | 380 kts | 262° |
| 2026-05-06 12:49 | 51.90148 | 3.68648 | 19492 ft | 383 kts | 261° |
| 2026-05-06 12:49 | 51.89723 | 3.64400 | 20140 ft | 387 kts | 261° |
| 2026-05-06 12:50 | 51.89289 | 3.60076 | 20799 ft | 390 kts | 261° |
| 2026-05-06 12:50 | 51.88853 | 3.55723 | 21492 ft | 392 kts | 260° |
| 2026-05-06 12:50 | 51.88414 | 3.51352 | 22195 ft | 393 kts | 260° |
| 2026-05-06 12:50 | 51.87972 | 3.46951 | 22826 ft | 397 kts | 260° |
| 2026-05-06 12:51 | 51.87524 | 3.42514 | 23363 ft | 402 kts | 260° |
| 2026-05-06 12:51 | 51.87068 | 3.38037 | 23794 ft | 403 kts | 260° |
| 2026-05-06 12:51 | 51.86609 | 3.33560 | 23908 ft | 404 kts | 259° |
| 2026-05-06 12:51 | 51.86144 | 3.29060 | 23946 ft | 413 kts | 260° |
| 2026-05-06 12:52 | 51.85665 | 3.24432 | 23942 ft | 417 kts | 260° |
| 2026-05-06 12:52 | 51.85156 | 3.19847 | 23941 ft | 417 kts | 256° |
| 2026-05-06 12:52 | 51.84283 | 3.15386 | 23941 ft | 415 kts | 247° |
| 2026-05-06 12:52 | 51.83024 | 3.11177 | 23942 ft | 416 kts | 243° |
| 2026-05-06 12:53 | 51.81694 | 3.06975 | 23948 ft | 426 kts | 243° |
| 2026-05-06 12:53 | 51.80317 | 3.02628 | 23945 ft | 440 kts | 243° |
| 2026-05-06 12:53 | 51.78913 | 2.98194 | 23944 ft | 445 kts | 243° |
| 2026-05-06 12:53 | 51.77492 | 2.93709 | 23945 ft | 447 kts | 243° |
| 2026-05-06 12:54 | 51.76090 | 2.89291 | 23946 ft | 446 kts | 243° |
| 2026-05-06 12:54 | 51.74669 | 2.84824 | 23944 ft | 447 kts | 243° |
| 2026-05-06 12:54 | 51.73237 | 2.80348 | 23946 ft | 448 kts | 243° |
| 2026-05-06 12:54 | 51.71807 | 2.75891 | 23945 ft | 446 kts | 243° |
| 2026-05-06 12:55 | 51.70375 | 2.71432 | 23945 ft | 446 kts | 243° |
| 2026-05-06 12:55 | 51.69156 | 2.66893 | 23950 ft | 448 kts | 251° |
| 2026-05-06 12:55 | 51.68429 | 2.62021 | 23955 ft | 447 kts | 261° |
| 2026-05-06 12:55 | 51.67991 | 2.57050 | 23954 ft | 447 kts | 261° |
| 2026-05-06 12:56 | 51.67551 | 2.52073 | 23948 ft | 447 kts | 261° |
| 2026-05-06 12:56 | 51.67106 | 2.47112 | 23950 ft | 448 kts | 261° |
| 2026-05-06 12:56 | 51.66654 | 2.42144 | 23955 ft | 447 kts | 261° |
| 2026-05-06 12:56 | 51.66197 | 2.37180 | 23955 ft | 448 kts | 261° |
| 2026-05-06 12:57 | 51.65736 | 2.32214 | 23951 ft | 448 kts | 261° |
| 2026-05-06 12:57 | 51.65272 | 2.27242 | 23954 ft | 448 kts | 261° |
| 2026-05-06 12:57 | 51.64812 | 2.22329 | 23956 ft | 448 kts | 261° |
| 2026-05-06 12:57 | 51.64342 | 2.17348 | 23956 ft | 448 kts | 261° |
| 2026-05-06 12:58 | 51.63873 | 2.12384 | 23955 ft | 448 kts | 261° |
| 2026-05-06 12:58 | 51.63407 | 2.07426 | 23956 ft | 448 kts | 261° |
| 2026-05-06 12:58 | 51.62943 | 2.02445 | 23638 ft | 448 kts | 261° |
| 2026-05-06 12:58 | 51.62494 | 1.97569 | 23226 ft | 430 kts | 261° |
| 2026-05-06 12:59 | 51.62072 | 1.92944 | 22952 ft | 416 kts | 261° |
| 2026-05-06 12:59 | 51.61575 | 1.88404 | 22370 ft | 408 kts | 255° |
| 2026-05-06 12:59 | 51.60633 | 1.84130 | 21641 ft | 403 kts | 245° |
| 2026-05-06 12:59 | 51.59248 | 1.80238 | 20971 ft | 397 kts | 235° |
| 2026-05-06 13:00 | 51.57540 | 1.76822 | 20335 ft | 392 kts | 230° |
| 2026-05-06 13:00 | 51.55757 | 1.73540 | 19752 ft | 386 kts | 229° |
| 2026-05-06 13:00 | 51.53982 | 1.70332 | 19194 ft | 381 kts | 229° |
| 2026-05-06 13:00 | 51.52220 | 1.67169 | 18625 ft | 377 kts | 229° |
| 2026-05-06 13:01 | 51.50481 | 1.64035 | 18048 ft | 372 kts | 231° |
| 2026-05-06 13:01 | 51.49019 | 1.60714 | 17480 ft | 367 kts | 240° |
| 2026-05-06 13:01 | 51.47935 | 1.57040 | 16944 ft | 361 kts | 250° |
| 2026-05-06 13:01 | 51.47076 | 1.53265 | 16398 ft | 358 kts | 251° |
| 2026-05-06 13:02 | 51.46217 | 1.49523 | 15840 ft | 355 kts | 251° |
| 2026-05-06 13:02 | 51.45353 | 1.45775 | 15271 ft | 363 kts | 250° |
| 2026-05-06 13:02 | 51.44450 | 1.41991 | 14727 ft | 369 kts | 247° |
| 2026-05-06 13:02 | 51.43186 | 1.38427 | 14175 ft | 369 kts | 236° |
| 2026-05-06 13:03 | 51.41499 | 1.35330 | 13640 ft | 368 kts | 225° |
| 2026-05-06 13:03 | 51.39492 | 1.32776 | 13050 ft | 368 kts | 218° |
| 2026-05-06 13:03 | 51.37432 | 1.30350 | 12478 ft | 366 kts | 218° |
| 2026-05-06 13:03 | 51.35388 | 1.27942 | 12040 ft | 364 kts | 218° |
| 2026-05-06 13:04 | 51.33377 | 1.25568 | 11940 ft | 363 kts | 218° |
| 2026-05-06 13:04 | 51.31339 | 1.23162 | 11958 ft | 364 kts | 218° |
| 2026-05-06 13:04 | 51.29295 | 1.20752 | 11893 ft | 365 kts | 218° |
| 2026-05-06 13:04 | 51.27252 | 1.18348 | 11408 ft | 363 kts | 218° |
| 2026-05-06 13:05 | 51.25224 | 1.15960 | 10901 ft | 361 kts | 218° |
| 2026-05-06 13:05 | 51.23200 | 1.13579 | 10406 ft | 359 kts | 218° |
| 2026-05-06 13:05 | 51.21190 | 1.11223 | 9919 ft | 357 kts | 218° |
| 2026-05-06 13:05 | 51.19228 | 1.08930 | 9404 ft | 350 kts | 218° |
| 2026-05-06 13:06 | 51.17286 | 1.06658 | 9030 ft | 339 kts | 217° |
| 2026-05-06 13:06 | 51.15432 | 1.04485 | 8959 ft | 321 kts | 217° |
| 2026-05-06 13:06 | 51.13685 | 1.02439 | 8966 ft | 301 kts | 219° |
| 2026-05-06 13:06 | 51.12081 | 1.00383 | 8834 ft | 291 kts | 230° |
| 2026-05-06 13:07 | 51.10997 | 0.97722 | 8706 ft | 285 kts | 250° |
| 2026-05-06 13:07 | 51.10317 | 0.94765 | 8586 ft | 285 kts | 251° |
| 2026-05-06 13:07 | 51.09656 | 0.91842 | 8440 ft | 284 kts | 252° |
| 2026-05-06 13:07 | 51.08985 | 0.88885 | 8326 ft | 284 kts | 252° |
| 2026-05-06 13:08 | 51.08314 | 0.85938 | 8083 ft | 283 kts | 253° |
| 2026-05-06 13:08 | 51.07644 | 0.82997 | 7758 ft | 282 kts | 253° |
| 2026-05-06 13:08 | 51.06978 | 0.80071 | 7431 ft | 281 kts | 252° |
| 2026-05-06 13:08 | 51.06321 | 0.77185 | 7120 ft | 280 kts | 252° |
| 2026-05-06 13:09 | 51.05661 | 0.74291 | 7016 ft | 278 kts | 252° |
| 2026-05-06 13:09 | 51.04997 | 0.71382 | 7030 ft | 280 kts | 251° |
| 2026-05-06 13:09 | 51.04332 | 0.68475 | 7039 ft | 280 kts | 253° |
| 2026-05-06 13:09 | 51.03661 | 0.65543 | 7039 ft | 281 kts | 253° |
| 2026-05-06 13:10 | 51.03049 | 0.62602 | 7035 ft | 278 kts | 262° |
| 2026-05-06 13:10 | 51.02882 | 0.59597 | 7041 ft | 276 kts | 270° |
| 2026-05-06 13:10 | 51.02839 | 0.56538 | 7046 ft | 276 kts | 271° |
| 2026-05-06 13:10 | 51.02812 | 0.53473 | 7047 ft | 276 kts | 271° |
| 2026-05-06 13:11 | 51.02775 | 0.50418 | 7020 ft | 277 kts | 270° |
| 2026-05-06 13:11 | 51.02742 | 0.47356 | 6719 ft | 276 kts | 272° |
| 2026-05-06 13:11 | 51.02701 | 0.44366 | 6423 ft | 270 kts | 271° |
| 2026-05-06 13:11 | 51.02642 | 0.41399 | 6124 ft | 267 kts | 271° |
| 2026-05-06 13:12 | 51.02585 | 0.38452 | 6038 ft | 266 kts | 271° |
| 2026-05-06 13:12 | 51.02536 | 0.35500 | 6042 ft | 268 kts | 271° |
| 2026-05-06 13:12 | 51.02481 | 0.32534 | 5788 ft | 266 kts | 271° |
| 2026-05-06 13:12 | 51.02444 | 0.29592 | 5519 ft | 266 kts | 271° |
| 2026-05-06 13:13 | 51.02402 | 0.26654 | 5254 ft | 265 kts | 271° |
| 2026-05-06 13:13 | 51.02352 | 0.23759 | 5076 ft | 264 kts | 271° |
| 2026-05-06 13:13 | 51.02302 | 0.20838 | 5031 ft | 264 kts | 271° |
| 2026-05-06 13:13 | 51.02249 | 0.17909 | 5028 ft | 266 kts | 271° |
| 2026-05-06 13:14 | 51.02191 | 0.14968 | 4774 ft | 265 kts | 271° |
| 2026-05-06 13:14 | 51.02130 | 0.12045 | 4501 ft | 264 kts | 271° |
| 2026-05-06 13:14 | 51.02086 | 0.09167 | 4240 ft | 262 kts | 272° |
| 2026-05-06 13:14 | 51.02032 | 0.06279 | 3977 ft | 261 kts | 272° |
| 2026-05-06 13:15 | 51.01984 | 0.03394 | 3700 ft | 260 kts | 271° |
| 2026-05-06 13:15 | 51.01946 | 0.00517 | 3449 ft | 260 kts | 271° |
| 2026-05-06 13:15 | 51.01898 | -0.02323 | 3175 ft | 259 kts | 271° |
| 2026-05-06 13:15 | 51.01840 | -0.05176 | 3016 ft | 259 kts | 271° |
| 2026-05-06 13:16 | 51.01782 | -0.08045 | 3010 ft | 259 kts | 271° |
| 2026-05-06 13:16 | 51.01713 | -0.10905 | 3010 ft | 259 kts | 271° |
| 2026-05-06 13:16 | 51.01648 | -0.13732 | 3009 ft | 259 kts | 272° |
| 2026-05-06 13:16 | 51.01589 | -0.16599 | 3007 ft | 259 kts | 271° |
| 2026-05-06 13:17 | 51.01534 | -0.19459 | 3009 ft | 259 kts | 271° |
| 2026-05-06 13:17 | 51.01481 | -0.22331 | 3007 ft | 259 kts | 271° |
| 2026-05-06 13:17 | 51.01425 | -0.25189 | 3008 ft | 259 kts | 271° |
| 2026-05-06 13:17 | 51.01385 | -0.28022 | 3006 ft | 259 kts | 272° |
| 2026-05-06 13:18 | 51.01327 | -0.30881 | 3010 ft | 259 kts | 270° |
| 2026-05-06 13:18 | 51.01275 | -0.33735 | 3008 ft | 258 kts | 271° |
| 2026-05-06 13:18 | 51.01218 | -0.36587 | 3007 ft | 257 kts | 271° |
| 2026-05-06 13:18 | 51.01155 | -0.39433 | 3011 ft | 258 kts | 271° |
| 2026-05-06 13:19 | 51.01085 | -0.42289 | 3008 ft | 259 kts | 271° |
| 2026-05-06 13:19 | 51.01032 | -0.45117 | 3008 ft | 259 kts | 272° |
| 2026-05-06 13:19 | 51.00977 | -0.47979 | 3007 ft | 259 kts | 271° |
| 2026-05-06 13:19 | 51.01124 | -0.50797 | 3001 ft | 254 kts | 290° |
| 2026-05-06 13:20 | 51.02040 | -0.53079 | 3008 ft | 237 kts | 321° |
| 2026-05-06 13:20 | 51.03403 | -0.54299 | 3007 ft | 215 kts | 339° |
| 2026-05-06 13:20 | 51.04751 | -0.55122 | 3009 ft | 199 kts | 341° |
| 2026-05-06 13:20 | 51.06012 | -0.55864 | 3008 ft | 186 kts | 341° |
| 2026-05-06 13:21 | 51.07228 | -0.56321 | 3014 ft | 182 kts | 5° |
| 2026-05-06 13:21 | 51.08447 | -0.55740 | 3024 ft | 185 kts | 27° |
| 2026-05-06 13:21 | 51.09459 | -0.54461 | 3015 ft | 188 kts | 47° |
| 2026-05-06 13:21 | 51.10103 | -0.52630 | 3014 ft | 192 kts | 69° |
| 2026-05-06 13:22 | 51.10408 | -0.50572 | 3013 ft | 195 kts | 73° |
| 2026-05-06 13:22 | 51.10705 | -0.48461 | 3014 ft | 195 kts | 74° |
| 2026-05-06 13:22 | 51.10998 | -0.46374 | 3004 ft | 188 kts | 74° |
| 2026-05-06 13:22 | 51.11278 | -0.44381 | 3008 ft | 181 kts | 73° |
| 2026-05-06 13:23 | 51.11552 | -0.42433 | 2938 ft | 179 kts | 74° |
| 2026-05-06 13:23 | 51.11818 | -0.40535 | 2757 ft | 172 kts | 74° |
| 2026-05-06 13:23 | 51.12074 | -0.38707 | 2534 ft | 167 kts | 72° |
| 2026-05-06 13:23 | 51.12325 | -0.36915 | 2311 ft | 164 kts | 73° |
| 2026-05-06 13:24 | 51.12570 | -0.35167 | 2084 ft | 163 kts | 73° |
| 2026-05-06 13:24 | 51.12815 | -0.33413 | 1861 ft | 160 kts | 72° |
| 2026-05-06 13:24 | 51.13052 | -0.31710 | 1645 ft | 153 kts | 72° |
| 2026-05-06 13:24 | 51.13276 | -0.30086 | 1443 ft | 147 kts | 73° |
| 2026-05-06 13:25 | 51.13495 | -0.28524 | 1208 ft | 143 kts | 71° |
| 2026-05-06 13:25 | 51.13691 | -0.27070 | 1110 ft | 129 kts | 72° |
| 2026-05-06 13:25 | 51.13874 | -0.25690 | 925 ft | 123 kts | 74° |
| 2026-05-06 13:25 | 51.14058 | -0.24372 | 700 ft | 121 kts | 70° |
| 2026-05-06 13:26 | 51.14178 | -0.23512 | 626 ft | 121 kts | 71° |
| 2026-05-06 13:26 | 51.14365 | -0.22197 | 453 ft | 122 kts | 74° |
| 2026-05-06 13:26 | 51.14537 | -0.20900 | 260 ft | 116 kts | 73° |
| 2026-05-06 13:26 | 51.14697 | -0.19674 | 247 ft | 102 kts | 72° |